Time;durP1;ratioP1;P1;durP2;ratioP2;P2;SDS_P1;SDS_P2;PMS_P1;PMS_P2;Temp;Humidity;BMP_temperature;BMP_pressure;BME280_temperature;BME280_humidity;BME280_pressure;Samples;Min_cycle;Max_cycle;Signal;HPM_P1;HPM_P2
2023/07/26 00:00:13;;;;;;;27.05;16.92;;;14.40;99.90;;;;;;5018348;28;20228;-84
2023/07/26 00:02:39;;;;;;;25.97;18.50;;;12.80;99.90;;;;;;5017657;28;20553;-81
2023/07/26 00:05:05;;;;;;;19.40;15.00;;;14.20;99.90;;;;;;5004391;28;20441;-83
2023/07/26 00:07:31;;;;;;;25.13;14.93;;;14.20;99.90;;;;;;5019968;28;20273;-88
2023/07/26 00:09:56;;;;;;;21.43;14.43;;;15.40;99.90;;;;;;5016369;28;20850;-80
2023/07/26 00:12:22;;;;;;;19.33;13.00;;;14.30;99.90;;;;;;5033511;28;20185;-82
2023/07/26 00:14:47;;;;;;;19.80;13.47;;;14.20;99.90;;;;;;5018357;28;20611;-82
2023/07/26 00:17:13;;;;;;;17.43;14.17;;;15.50;99.90;;;;;;5020052;28;20263;-86
2023/07/26 00:19:38;;;;;;;17.10;13.27;;;14.80;99.90;;;;;;5021664;28;20217;-85
2023/07/26 00:22:04;;;;;;;13.93;12.33;;;14.20;99.90;;;;;;5021368;28;20638;-83
2023/07/26 00:24:29;;;;;;;17.40;11.53;;;14.20;99.90;;;;;;5015775;28;20208;-83
2023/07/26 00:26:55;;;;;;;15.27;10.30;;;14.10;99.90;;;;;;5018045;28;20198;-83
2023/07/26 00:29:20;;;;;;;18.40;10.20;;;13.90;99.90;;;;;;5021535;28;20980;-87
2023/07/26 00:31:46;;;;;;;11.10;8.53;;;14.10;99.90;;;;;;5015631;28;20212;-84
2023/07/26 00:34:12;;;;;;;13.70;9.13;;;14.10;99.90;;;;;;5030687;28;20220;-81
2023/07/26 00:36:37;;;;;;;16.23;8.90;;;14.10;99.90;;;;;;5019324;28;20745;-86
2023/07/26 00:39:03;;;;;;;13.20;9.30;;;14.00;99.90;;;;;;5016921;28;20201;-83
2023/07/26 00:41:29;;;;;;;12.13;10.10;;;14.00;99.90;;;;;;5021613;28;20182;-83
2023/07/26 00:43:54;;;;;;;13.80;8.43;;;15.10;99.90;;;;;;5025486;28;20192;-83
2023/07/26 00:46:21;;;;;;;16.63;8.43;;;14.00;99.90;;;;;;5022374;28;20246;-83
2023/07/26 00:48:47;;;;;;;15.20;8.50;;;13.90;99.90;;;;;;5017465;28;20209;-85
2023/07/26 00:51:13;;;;;;;9.73;6.70;;;14.60;99.90;;;;;;5014960;28;20451;-82
2023/07/26 00:53:39;;;;;;;7.87;6.13;;;13.60;99.90;;;;;;5024381;28;20205;-81
2023/07/26 00:56:04;;;;;;;5.77;4.47;;;15.20;99.90;;;;;;5039084;28;20436;-85
2023/07/26 00:58:30;;;;;;;4.30;3.90;;;13.80;99.90;;;;;;5025076;28;20202;-87
2023/07/26 01:00:57;;;;;;;8.40;3.70;;;13.80;99.90;;;;;;5019605;28;20535;-85
2023/07/26 01:03:22;;;;;;;8.60;4.80;;;13.80;99.90;;;;;;5037271;28;20833;-85
2023/07/26 01:06:11;;;;;;;6.87;3.80;;;13.80;99.90;;;;;;5014303;28;20454;-84
2023/07/26 01:09:00;;;;;;;9.30;3.67;;;13.80;99.90;;;;;;5016809;28;20596;-83
2023/07/26 01:11:29;;;;;;;5.63;3.42;;;13.90;99.90;;;;;;5014670;28;22234;-82
2023/07/26 01:13:57;;;;;;;5.00;3.63;;;13.90;99.90;;;;;;5024540;28;20729;-84
2023/07/26 01:16:23;;;;;;;2.67;2.40;;;13.90;99.90;;;;;;5016211;28;20182;-86
2023/07/26 01:18:48;;;;;;;11.83;3.90;;;14.30;99.90;;;;;;5015527;28;20458;-83
2023/07/26 01:21:14;;;;;;;4.17;2.80;;;13.80;99.90;;;;;;5017678;28;20658;-83
2023/07/26 01:23:40;;;;;;;7.17;3.10;;;13.80;99.90;;;;;;5015429;28;20955;-82
2023/07/26 01:26:05;;;;;;;4.00;2.77;;;13.90;99.90;;;;;;5014957;28;20733;-81
2023/07/26 01:28:31;;;;;;;4.60;2.50;;;14.00;99.90;;;;;;5014327;28;20253;-85
2023/07/26 01:30:59;;;;;;;6.38;3.10;;;14.10;99.90;;;;;;5025328;28;20192;-84
2023/07/26 01:33:27;;;;;;;7.38;3.60;;;14.00;99.90;;;;;;5022560;28;20205;-84
2023/07/26 01:35:53;;;;;;;3.90;3.50;;;14.00;99.90;;;;;;5016629;28;20186;-82
2023/07/26 01:38:20;;;;;;;6.80;3.50;;;14.00;99.90;;;;;;5014544;28;20209;-85
2023/07/26 01:40:46;;;;;;;11.05;3.05;;;14.10;99.90;;;;;;5015883;28;20428;-82
2023/07/26 01:43:12;;;;;;;6.87;3.23;;;14.20;99.90;;;;;;5015090;28;20225;-84
2023/07/26 01:45:38;;;;;;;4.83;2.80;;;14.10;99.90;;;;;;5014367;28;20475;-83
2023/07/26 01:48:04;;;;;;;8.83;2.70;;;14.10;99.90;;;;;;5035212;28;20436;-80
2023/07/26 01:50:29;;;;;;;5.60;3.23;;;14.20;99.90;;;;;;5018168;28;20194;-80
2023/07/26 01:52:58;;;;;;;5.40;3.40;;;14.10;99.90;;;;;;5026195;28;20444;-85
2023/07/26 01:55:23;;;;;;;5.30;3.40;;;14.10;99.90;;;;;;5024103;28;20268;-84
2023/07/26 01:57:49;;;;;;;5.33;3.00;;;14.00;99.90;;;;;;5009960;28;20734;-82
2023/07/26 02:00:14;;;;;;;10.00;4.10;;;13.90;99.90;;;;;;5021511;28;20676;-83
2023/07/26 02:02:40;;;;;;;9.80;4.43;;;13.70;99.90;;;;;;5045712;28;20220;-84
2023/07/26 02:05:06;;;;;;;5.27;4.10;;;13.60;99.90;;;;;;5020462;28;20197;-82
2023/07/26 02:07:32;;;;;;;9.88;4.50;;;13.40;99.90;;;;;;5031238;28;20259;-84
2023/07/26 02:09:58;;;;;;;14.70;5.45;;;13.40;99.90;;;;;;5021227;28;21870;-83
2023/07/26 02:12:23;;;;;;;9.50;5.03;;;13.20;99.90;;;;;;5016665;28;20185;-83
2023/07/26 02:14:52;;;;;;;8.13;5.60;;;13.20;99.90;;;;;;5017314;28;20216;-87
2023/07/26 02:17:17;;;;;;;4.88;4.35;;;13.30;99.90;;;;;;5017135;28;20193;-83
2023/07/26 02:19:43;;;;;;;8.70;5.20;;;13.20;99.90;;;;;;5019448;28;20214;-83
2023/07/26 02:22:09;;;;;;;6.43;5.50;;;13.30;99.90;;;;;;5017076;28;20182;-82
2023/07/26 02:24:35;;;;;;;8.70;5.90;;;13.40;99.90;;;;;;5016185;28;20173;-85
2023/07/26 02:27:00;;;;;;;8.43;6.30;;;13.40;99.90;;;;;;5019582;28;20220;-83
2023/07/26 02:29:26;;;;;;;10.20;5.60;;;13.40;99.90;;;;;;5008325;28;20806;-81
2023/07/26 02:31:51;;;;;;;11.27;6.90;;;13.30;99.90;;;;;;5019183;28;20268;-85
2023/07/26 02:34:17;;;;;;;8.27;5.90;;;13.20;99.90;;;;;;5018103;28;20259;-85
2023/07/26 02:36:42;;;;;;;8.57;7.07;;;13.20;99.90;;;;;;5017624;28;20650;-81
2023/07/26 02:39:08;;;;;;;9.37;6.80;;;13.10;99.90;;;;;;5019484;28;20194;-86
2023/07/26 02:41:34;;;;;;;11.10;6.50;;;13.00;99.90;;;;;;5022832;28;20853;-84
2023/07/26 02:43:59;;;;;;;12.60;5.90;;;13.10;99.90;;;;;;5033648;28;20187;-82
2023/07/26 02:46:25;;;;;;;11.57;6.60;;;13.50;99.90;;;;;;5029394;28;20186;-85
2023/07/26 02:48:50;;;;;;;6.23;5.63;;;12.90;99.90;;;;;;5023473;28;20274;-88
2023/07/26 02:51:16;;;;;;;6.80;5.47;;;12.80;99.90;;;;;;5016923;28;20200;-84
2023/07/26 02:53:41;;;;;;;9.90;6.83;;;12.80;99.90;;;;;;5012782;28;20288;-84
2023/07/26 02:56:07;;;;;;;7.63;5.23;;;12.80;99.90;;;;;;5017063;28;20208;-85
2023/07/26 02:58:32;;;;;;;8.57;4.80;;;12.80;99.90;;;;;;5017161;28;20570;-87
2023/07/26 03:00:58;;;;;;;7.73;5.50;;;12.70;99.90;;;;;;5013155;28;20182;-85
2023/07/26 03:03:23;;;;;;;7.93;5.40;;;12.70;99.90;;;;;;5010727;28;20241;-84
2023/07/26 03:05:49;;;;;;;8.90;5.93;;;12.70;99.90;;;;;;5016117;28;20279;-79
2023/07/26 03:08:14;;;;;;;19.93;6.90;;;12.70;99.90;;;;;;5016169;28;20713;-84
2023/07/26 03:10:40;;;;;;;6.80;6.13;;;12.80;99.90;;;;;;5029466;28;20186;-83
2023/07/26 03:13:05;;;;;;;10.50;6.90;;;12.60;99.90;;;;;;5016305;28;20185;-86
2023/07/26 03:15:31;;;;;;;9.83;7.40;;;13.80;99.90;;;;;;5016639;28;20185;-84
2023/07/26 03:17:59;;;;;;;19.07;8.37;;;12.60;99.90;;;;;;5015451;28;20182;-85
2023/07/26 03:20:25;;;;;;;11.95;7.85;;;13.80;99.90;;;;;;5012118;28;20194;-84
2023/07/26 03:22:51;;;;;;;14.73;9.17;;;12.70;99.90;;;;;;5014703;28;20178;-85
2023/07/26 03:25:17;;;;;;;16.02;7.35;;;12.70;99.90;;;;;;5012580;28;20221;-81
2023/07/26 03:27:42;;;;;;;18.77;10.07;;;13.60;99.90;;;;;;5017361;28;20329;-83
2023/07/26 03:30:08;;;;;;;11.00;9.80;;;12.80;99.90;;;;;;5015494;28;20720;-88
2023/07/26 03:32:33;;;;;;;13.20;10.30;;;12.70;99.90;;;;;;5010287;28;20232;-86
2023/07/26 03:34:59;;;;;;;17.63;10.17;;;12.60;99.90;;;;;;5011321;28;20239;-84
2023/07/26 03:37:24;;;;;;;18.27;12.27;;;12.60;99.90;;;;;;5014738;28;20189;-82
2023/07/26 03:39:50;;;;;;;16.53;11.30;;;12.50;99.90;;;;;;5029955;28;20217;-86
2023/07/26 03:42:15;;;;;;;13.30;9.97;;;12.60;99.90;;;;;;5013928;28;20182;-84
2023/07/26 03:44:41;;;;;;;19.13;11.47;;;12.60;99.90;;;;;;5015406;28;20280;-84
2023/07/26 03:47:06;;;;;;;14.23;11.30;;;12.60;99.90;;;;;;5013615;28;20205;-84
2023/07/26 03:49:32;;;;;;;15.97;11.70;;;12.60;99.90;;;;;;5016480;28;20216;-80
2023/07/26 03:51:58;;;;;;;16.27;10.77;;;13.60;99.90;;;;;;5027123;28;20194;-82
2023/07/26 03:54:23;;;;;;;15.13;11.80;;;12.30;99.90;;;;;;5013770;28;20208;-85
2023/07/26 03:56:49;;;;;;;15.43;11.10;;;12.30;99.90;;;;;;5012733;28;20196;-84
2023/07/26 03:59:14;;;;;;;13.90;11.73;;;12.80;99.90;;;;;;5018067;28;20574;-82
2023/07/26 04:01:40;;;;;;;12.77;11.40;;;12.50;99.90;;;;;;5014739;28;20748;-83
2023/07/26 04:04:05;;;;;;;13.50;11.63;;;12.60;99.90;;;;;;5012943;28;20213;-81
2023/07/26 04:06:31;;;;;;;20.47;11.93;;;12.50;99.90;;;;;;5013317;28;20205;-85
2023/07/26 04:08:56;;;;;;;24.73;13.60;;;12.70;99.90;;;;;;5010389;28;20385;-82
2023/07/26 04:11:22;;;;;;;17.60;11.20;;;12.70;99.90;;;;;;5015604;28;20556;-86
2023/07/26 04:13:47;;;;;;;15.37;13.10;;;12.60;99.90;;;;;;5014206;28;20229;-81
2023/07/26 04:16:18;;;;;;;16.07;12.97;;;13.70;99.90;;;;;;5020957;28;20236;-82
2023/07/26 04:18:44;;;;;;;22.60;12.40;;;12.70;99.90;;;;;;5012595;28;20262;-82
2023/07/26 04:21:16;;;;;;;15.30;12.83;;;12.60;99.90;;;;;;5015029;28;20189;-84
2023/07/26 04:23:42;;;;;;;18.60;11.85;;;12.60;99.90;;;;;;5014391;28;20523;-85
2023/07/26 04:26:08;;;;;;;15.10;11.52;;;13.70;99.90;;;;;;5012292;28;20197;-84
2023/07/26 04:28:33;;;;;;;19.77;12.40;;;12.70;99.90;;;;;;5029669;28;20707;-85
2023/07/26 04:30:59;;;;;;;20.57;12.80;;;12.80;99.90;;;;;;5012473;28;20217;-83
2023/07/26 04:33:24;;;;;;;21.03;12.37;;;12.90;99.90;;;;;;5009867;28;20838;-86
2023/07/26 04:35:51;;;;;;;16.83;11.30;;;13.00;99.90;;;;;;5008981;28;20200;-81
2023/07/26 04:38:18;;;;;;;13.20;11.88;;;13.10;99.90;;;;;;5004293;28;20190;-89
2023/07/26 04:40:47;;;;;;;19.17;11.82;;;13.10;99.90;;;;;;5006987;28;20279;-82
2023/07/26 04:43:16;;;;;;;16.50;11.63;;;13.10;99.90;;;;;;5010527;28;20178;-86
2023/07/26 04:45:44;;;;;;;20.05;11.90;;;13.40;99.90;;;;;;5019056;28;20190;-84
2023/07/26 04:48:10;;;;;;;15.70;11.75;;;13.50;99.90;;;;;;5011744;28;20239;-80
2023/07/26 04:50:35;;;;;;;17.00;11.17;;;13.50;99.90;;;;;;5002773;28;20189;-79
2023/07/26 04:53:01;;;;;;;13.37;10.30;;;14.10;99.90;;;;;;5009831;28;20736;-81
2023/07/26 04:55:26;;;;;;;14.53;10.77;;;14.50;99.90;;;;;;5011546;28;20189;-87
2023/07/26 04:57:52;;;;;;;14.17;9.10;;;14.40;99.90;;;;;;5023484;28;20189;-80
2023/07/26 05:00:18;;;;;;;15.30;9.67;;;13.90;99.90;;;;;;5008019;28;20319;-81
2023/07/26 05:02:43;;;;;;;13.93;10.33;;;13.70;99.90;;;;;;5002798;28;20189;-82
2023/07/26 05:05:09;;;;;;;17.77;9.87;;;13.70;99.90;;;;;;5012502;28;20231;-83
2023/07/26 05:07:35;;;;;;;11.03;9.87;;;13.60;99.90;;;;;;5018345;28;20178;-84
2023/07/26 05:10:00;;;;;;;14.10;8.60;;;15.30;99.90;;;;;;5020030;28;20216;-83
2023/07/26 05:12:26;;;;;;;10.77;8.53;;;13.50;99.90;;;;;;5014709;28;20174;-83
2023/07/26 05:14:52;;;;;;;9.73;8.70;;;13.50;99.90;;;;;;5020253;28;20708;-85
2023/07/26 05:17:17;;;;;;;12.63;8.40;;;13.60;99.90;;;;;;5016542;28;20178;-79
2023/07/26 05:19:43;;;;;;;10.40;9.03;;;13.70;99.90;;;;;;5032922;28;20197;-86
2023/07/26 05:22:08;;;;;;;12.30;9.00;;;13.70;99.90;;;;;;5020728;28;20673;-87
2023/07/26 05:24:34;;;;;;;11.40;9.00;;;13.70;99.90;;;;;;5024991;28;20839;-83
2023/07/26 05:26:59;;;;;;;9.30;8.00;;;13.70;99.90;;;;;;5024040;28;20280;-88
2023/07/26 05:29:25;;;;;;;10.43;8.13;;;13.80;99.90;;;;;;5023233;28;20205;-83
2023/07/26 05:31:51;;;;;;;12.73;8.60;;;13.80;99.90;;;;;;5023969;28;20216;-85
2023/07/26 05:34:16;;;;;;;10.60;8.37;;;13.90;99.90;;;;;;5012559;28;20240;-82
2023/07/26 05:36:42;;;;;;;11.73;8.07;;;13.90;99.90;;;;;;5022654;28;20178;-82
2023/07/26 05:39:07;;;;;;;14.03;7.87;;;14.70;99.90;;;;;;5023424;28;20591;-82
2023/07/26 05:41:33;;;;;;;11.43;7.77;;;14.20;99.90;;;;;;5020417;28;20196;-85
2023/07/26 05:43:59;;;;;;;9.27;8.30;;;14.20;99.90;;;;;;5021084;28;20238;-86
2023/07/26 05:46:25;;;;;;;10.95;6.90;;;14.20;99.90;;;;;;5018986;28;20265;-84
2023/07/26 05:48:50;;;;;;;11.73;7.43;;;14.10;99.90;;;;;;5022544;28;20296;-82
2023/07/26 05:51:16;;;;;;;13.00;7.40;;;14.20;99.90;;;;;;5022407;28;20204;-82
2023/07/26 05:53:44;;;;;;;9.33;6.63;;;14.20;99.90;;;;;;5023007;28;20204;-85
2023/07/26 05:56:10;;;;;;;10.88;8.15;;;15.30;99.90;;;;;;5020381;28;20751;-83
2023/07/26 05:58:36;;;;;;;9.70;6.63;;;14.10;99.90;;;;;;5020767;28;20197;-82
2023/07/26 06:01:01;;;;;;;8.90;7.20;;;14.10;99.90;;;;;;5018566;28;20436;-83
2023/07/26 06:03:26;;;;;;;7.97;6.00;;;14.20;99.90;;;;;;5020935;28;20181;-84
2023/07/26 06:05:52;;;;;;;9.00;7.03;;;14.10;99.90;;;;;;5021959;28;20673;-84
2023/07/26 06:08:19;;;;;;;13.03;7.70;;;14.10;99.90;;;;;;5050861;28;20193;-80
2023/07/26 06:10:44;;;;;;;8.25;6.30;;;14.00;99.90;;;;;;5037786;28;20197;-79
2023/07/26 06:13:12;;;;;;;9.80;7.47;;;14.00;99.90;;;;;;5025626;28;20190;-81
2023/07/26 06:15:40;;;;;;;8.82;6.45;;;13.90;99.90;;;;;;5023924;28;20209;-81
2023/07/26 06:18:06;;;;;;;8.35;6.35;;;13.90;99.90;;;;;;5021762;28;20281;-83
2023/07/26 06:20:31;;;;;;;11.27;6.30;;;13.80;99.90;;;;;;5024609;28;20192;-86
2023/07/26 06:22:57;;;;;;;11.33;6.43;;;;;;;;;;5025995;28;20177;-84
2023/07/26 06:25:23;;;;;;;9.53;7.30;;;13.90;99.90;;;;;;5024233;28;20209;-83
2023/07/26 06:27:48;;;;;;;9.07;5.80;;;14.00;99.90;;;;;;5024346;28;20566;-83
2023/07/26 06:30:15;;;;;;;11.57;6.70;;;14.10;99.90;;;;;;5034647;28;20297;-86
2023/07/26 06:32:41;;;;;;;7.67;6.40;;;14.10;99.90;;;;;;5029857;28;20172;-79
2023/07/26 06:35:08;;;;;;;11.27;6.83;;;14.30;99.90;;;;;;5022923;28;20472;-84
2023/07/26 06:37:34;;;;;;;8.23;6.55;;;14.30;99.90;;;;;;5019373;28;20236;-85
2023/07/26 06:40:00;;;;;;;7.53;5.90;;;14.40;99.90;;;;;;5021208;28;20296;-83
2023/07/26 06:42:25;;;;;;;8.00;6.20;;;14.60;99.90;;;;;;5022393;28;20431;-83
2023/07/26 06:44:51;;;;;;;8.00;6.80;;;15.50;99.90;;;;;;5025089;28;20186;-86
2023/07/26 06:47:17;;;;;;;10.30;6.40;;;14.40;99.90;;;;;;5023243;28;20649;-86
2023/07/26 06:49:42;;;;;;;7.60;6.77;;;14.50;99.90;;;;;;5018912;28;20206;-86
2023/07/26 06:52:08;;;;;;;8.87;6.83;;;14.40;99.90;;;;;;5035830;28;20436;-84
2023/07/26 06:54:35;;;;;;;7.83;7.00;;;14.50;99.90;;;;;;5021510;28;20284;-84
2023/07/26 06:57:01;;;;;;;11.43;8.87;;;14.50;99.90;;;;;;5020575;28;20192;-86
2023/07/26 06:59:26;;;;;;;10.30;7.53;;;14.40;99.90;;;;;;5019839;28;20444;-86
2023/07/26 07:01:52;;;;;;;11.47;6.40;;;14.60;99.90;;;;;;5021031;28;20270;-86
2023/07/26 07:04:18;;;;;;;10.10;6.57;;;;;;;;;;5021077;28;20178;-83
2023/07/26 07:06:43;;;;;;;8.47;7.00;;;14.50;99.90;;;;;;5020333;28;20721;-86
2023/07/26 07:09:12;;;;;;;8.17;7.30;;;;;;;;;;5020300;28;22200;-86
2023/07/26 07:11:37;;;;;;;9.90;6.27;;;14.70;99.90;;;;;;5021556;28;20190;-85
2023/07/26 07:14:03;;;;;;;11.13;5.80;;;;;;;;;;5021893;28;20506;-83
2023/07/26 07:16:29;;;;;;;9.60;5.63;;;14.70;99.90;;;;;;5019187;28;20523;-83
2023/07/26 07:19:03;;;;;;;6.93;4.73;;;15.80;99.90;;;;;;5021987;28;20455;-80
2023/07/26 07:21:29;;;;;;;8.57;5.30;;;;;;;;;;5036671;28;20853;-81
2023/07/26 07:23:55;;;;;;;6.13;5.00;;;14.40;99.90;;;;;;5030785;28;20444;-84
2023/07/26 07:26:21;;;;;;;6.40;5.57;;;14.40;99.90;;;;;;5012749;28;20436;-85
2023/07/26 07:28:46;;;;;;;8.73;6.30;;;14.70;99.90;;;;;;5026045;28;20471;-84
2023/07/26 07:31:12;;;;;;;10.77;6.37;;;14.80;99.90;;;;;;5025495;28;20756;-82
2023/07/26 07:33:38;;;;;;;8.53;5.90;;;14.90;99.90;;;;;;5025647;28;20567;-83
2023/07/26 07:36:04;;;;;;;8.90;5.70;;;15.00;99.90;;;;;;5022106;28;20276;-85
2023/07/26 07:38:31;;;;;;;6.80;5.23;;;15.10;99.90;;;;;;5037994;28;20563;-86
2023/07/26 07:40:56;;;;;;;7.07;6.03;;;15.00;99.90;;;;;;5035902;28;20432;-83
2023/07/26 07:43:22;;;;;;;6.60;6.00;;;15.10;99.90;;;;;;5032921;28;20431;-82
2023/07/26 07:45:47;;;;;;;9.83;5.87;;;15.10;99.90;;;;;;5036246;28;20177;-84
2023/07/26 07:48:13;;;;;;;7.30;5.73;;;15.20;99.90;;;;;;5026393;28;20522;-85
2023/07/26 07:50:38;;;;;;;7.37;5.63;;;15.10;99.90;;;;;;5025120;28;20202;-85
2023/07/26 07:53:04;;;;;;;5.67;4.60;;;15.20;99.90;;;;;;5026002;28;20186;-83
2023/07/26 07:55:31;;;;;;;6.63;5.23;;;15.00;99.90;;;;;;5022511;28;20182;-85
2023/07/26 07:57:59;;;;;;;7.97;5.30;;;14.80;99.90;;;;;;5023565;28;20878;-85
2023/07/26 08:00:25;;;;;;;7.77;5.63;;;15.00;99.90;;;;;;5020996;28;20533;-83
2023/07/26 08:02:50;;;;;;;5.17;4.77;;;15.10;99.90;;;;;;5023373;28;20444;-82
2023/07/26 08:05:16;;;;;;;6.00;4.87;;;15.10;99.90;;;;;;5017661;28;20189;-87
2023/07/26 08:07:53;;;;;;;6.57;5.93;;;15.40;99.90;;;;;;5020970;28;20254;-82
2023/07/26 08:10:23;;;;;;;7.73;4.77;;;;;;;;;;5024227;28;20208;-83
2023/07/26 08:12:48;;;;;;;6.50;4.90;;;15.40;99.90;;;;;;5022598;28;20428;-84
2023/07/26 08:15:16;;;;;;;5.40;4.83;;;15.90;99.90;;;;;;5021667;28;20547;-85
2023/07/26 08:17:42;;;;;;;3.73;3.40;;;16.10;99.90;;;;;;5021178;28;20198;-84
2023/07/26 08:20:26;;;;;;;6.30;4.87;;;17.10;99.90;;;;;;5025462;28;20483;-84
2023/07/26 08:22:57;;;;;;;5.10;4.33;;;15.60;99.90;;;;;;5020237;28;20204;-87
2023/07/26 08:25:24;;;;;;;7.30;5.43;;;15.90;99.90;;;;;;5022113;28;20440;-87
2023/07/26 08:27:50;;;;;;;4.00;3.70;;;;;;;;;;5021157;28;20497;-79
2023/07/26 08:30:26;;;;;;;6.10;4.70;;;16.10;99.90;;;;;;5022200;28;20486;-87
2023/07/26 08:32:52;;;;;;;5.07;4.47;;;;;;;;;;5014740;28;20442;-84
2023/07/26 08:35:24;;;;;;;5.47;4.33;;;15.90;99.90;;;;;;5037416;28;20460;-88
2023/07/26 08:37:49;;;;;;;5.70;3.90;;;16.10;99.90;;;;;;5024916;28;20513;-81
2023/07/26 08:40:15;;;;;;;4.53;4.10;;;;;;;;;;5033574;28;20504;-85
2023/07/26 08:42:42;;;;;;;4.63;3.60;;;15.80;99.90;;;;;;5018263;28;20212;-83
2023/07/26 08:45:08;;;;;;;4.53;3.30;;;15.60;99.90;;;;;;5020437;28;20447;-87
2023/07/26 08:47:38;;;;;;;9.40;4.00;;;16.00;99.90;;;;;;5019256;28;20437;-81
2023/07/26 08:50:06;;;;;;;6.63;4.30;;;;;;;;;;5019779;28;21286;-84
2023/07/26 08:52:33;;;;;;;5.80;3.77;;;;;;;;;;5021387;28;20856;-85
2023/07/26 08:54:59;;;;;;;5.87;3.80;;;16.90;99.90;;;;;;5019677;28;20466;-83
2023/07/26 08:57:28;;;;;;;9.80;5.33;;;17.50;99.90;;;;;;5019725;28;20439;-86
2023/07/26 08:59:54;;;;;;;3.97;2.80;;;;;;;;;;5014559;28;20460;-85
2023/07/26 09:02:20;;;;;;;5.40;3.20;;;;;;;;;;5018740;28;20428;-85
2023/07/26 09:04:49;;;;;;;5.43;3.70;;;16.90;99.90;;;;;;5015427;28;20438;-85
2023/07/26 09:07:15;;;;;;;5.50;3.60;;;;;;;;;;5013367;28;20448;-81
2023/07/26 09:09:41;;;;;;;6.30;2.80;;;;;;;;;;5018662;28;20456;-86
2023/07/26 09:12:09;;;;;;;8.17;3.43;;;16.90;99.90;;;;;;5022243;28;20437;-89
2023/07/26 09:14:35;;;;;;;5.60;3.00;;;17.50;99.90;;;;;;5018160;28;20463;-84
2023/07/26 09:17:02;;;;;;;4.00;3.00;;;17.60;99.90;;;;;;5020299;28;20436;-83
2023/07/26 09:19:37;;;;;;;3.17;2.87;;;16.90;99.90;;;;;;5020272;28;20680;-84
2023/07/26 09:22:04;;;;;;;8.33;3.40;;;17.00;99.90;;;;;;5020512;28;20530;-86
2023/07/26 09:24:33;;;;;;;2.50;2.30;;;17.80;99.90;;;;;;5033712;28;21006;-83
2023/07/26 09:27:07;;;;;;;4.83;2.80;;;17.90;99.90;;;;;;5017879;28;20451;-86
2023/07/26 09:29:35;;;;;;;6.73;2.47;;;18.00;99.90;;;;;;5018375;28;20464;-85
2023/07/26 09:32:00;;;;;;;4.63;2.80;;;17.80;99.90;;;;;;5017657;28;21151;-84
2023/07/26 09:34:28;;;;;;;3.20;2.20;;;18.00;99.90;;;;;;5017330;28;20569;-83
2023/07/26 09:36:54;;;;;;;6.73;2.77;;;17.60;99.90;;;;;;5008503;28;20304;-84
2023/07/26 09:39:21;;;;;;;3.57;3.27;;;17.20;99.90;;;;;;5019108;28;20599;-87
2023/07/26 09:41:49;;;;;;;6.40;2.40;;;17.70;99.90;;;;;;5015310;28;20475;-87
2023/07/26 09:44:21;;;;;;;6.20;2.40;;;18.80;99.90;;;;;;5020620;28;20458;-86
2023/07/26 09:46:52;;;;;;;3.30;2.40;;;19.90;99.90;;;;;;5021207;28;20443;-86
2023/07/26 09:49:21;;;;;;;3.70;2.53;;;21.00;99.90;;;;;;5019460;28;20467;-87
2023/07/26 09:51:48;;;;;;;5.63;2.50;;;20.60;99.90;;;;;;5025891;28;20440;-79
2023/07/26 09:54:14;;;;;;;4.10;2.60;;;20.10;99.90;;;;;;5031199;28;20521;-84
2023/07/26 09:56:43;;;;;;;3.33;3.00;;;20.40;99.90;;;;;;5039006;28;20848;-84
2023/07/26 09:59:11;;;;;;;6.77;3.37;;;20.40;99.90;;;;;;5021609;28;20454;-87
2023/07/26 10:01:43;;;;;;;5.30;2.87;;;20.00;99.90;;;;;;5024535;28;20435;-88
2023/07/26 10:04:12;;;;;;;4.53;3.23;;;20.00;99.90;;;;;;5032901;28;20416;-80
2023/07/26 10:06:41;;;;;;;2.53;2.33;;;19.30;99.90;;;;;;5016717;28;21326;-85
2023/07/26 10:09:16;;;;;;;3.17;2.87;;;18.60;99.90;;;;;;5017918;28;20451;-88
2023/07/26 10:11:43;;;;;;;4.70;3.30;;;18.90;99.90;;;;;;5021219;28;21171;-88
2023/07/26 10:14:14;;;;;;;5.07;3.03;;;19.40;99.90;;;;;;5025765;28;20452;-86
2023/07/26 10:16:39;;;;;;;3.73;3.13;;;19.00;99.90;;;;;;5017619;28;20523;-82
2023/07/26 10:19:07;;;;;;;3.70;3.00;;;18.10;99.90;;;;;;5016068;28;20543;-86
2023/07/26 10:21:36;;;;;;;5.37;3.27;;;18.20;99.90;;;;;;5023356;28;20189;-86
2023/07/26 10:24:03;;;;;;;5.47;3.43;;;17.80;99.90;;;;;;5020892;28;20436;-86
2023/07/26 10:26:32;;;;;;;3.73;2.67;;;17.40;99.90;;;;;;5021055;28;20440;-88
2023/07/26 10:28:59;;;;;;;4.37;3.13;;;17.70;99.90;;;;;;5024888;28;20464;-85
2023/07/26 10:31:29;;;;;;;5.27;3.03;;;18.10;99.90;;;;;;5024164;28;20440;-87
2023/07/26 10:33:56;;;;;;;5.80;3.93;;;18.30;99.90;;;;;;5013967;28;20461;-87
2023/07/26 10:36:30;;;;;;;3.10;2.60;;;18.20;99.90;;;;;;5017984;28;20578;-86
2023/07/26 10:38:56;;;;;;;4.60;2.90;;;18.50;99.90;;;;;;5017277;28;20460;-86
2023/07/26 10:41:26;;;;;;;5.10;3.50;;;18.50;99.90;;;;;;5020140;28;20432;-87
2023/07/26 10:44:21;;;;;;;3.83;2.93;;;18.80;99.90;;;;;;5025496;28;20265;-87
2023/07/26 10:46:52;;;;;;;3.87;3.27;;;19.00;99.90;;;;;;5021394;28;20533;-86
2023/07/26 10:49:21;;;;;;;2.53;2.33;;;19.30;99.90;;;;;;5021115;28;20458;-88
2023/07/26 10:51:58;;;;;;;4.17;2.83;;;18.90;99.90;;;;;;5031109;28;20456;-85
2023/07/26 10:54:41;;;;;;;7.93;3.07;;;19.10;99.90;;;;;;5036315;28;20476;-88
2023/07/26 10:57:26;;;;;;;6.03;3.10;;;18.90;99.90;;;;;;5019065;28;20432;-85
2023/07/26 10:59:51;;;;;;;4.10;2.93;;;18.70;99.90;;;;;;5013477;28;20451;-85
2023/07/26 11:02:42;;;;;;;5.37;2.53;;;19.00;99.90;;;;;;5022693;28;20448;-84
2023/07/26 11:05:10;;;;;;;3.83;2.67;;;19.60;99.90;;;;;;5015114;28;20181;-88
2023/07/26 11:07:53;;;;;;;7.50;2.80;;;19.40;99.90;;;;;;5023653;28;20440;-84
2023/07/26 11:10:29;;;;;;;3.13;2.83;;;19.00;99.90;;;;;;5032684;28;20467;-83
2023/07/26 11:13:11;;;;;;;4.10;3.47;;;18.50;99.90;;;;;;5047612;28;20440;-86
2023/07/26 11:15:48;;;;;;;4.47;3.30;;;18.30;99.90;;;;;;5026217;28;20464;-83
2023/07/26 11:18:15;;;;;;;7.03;4.07;;;18.50;99.90;;;;;;5043144;28;20425;-85
2023/07/26 11:20:52;;;;;;;4.67;3.47;;;18.90;99.90;;;;;;5026077;28;21148;-88
2023/07/26 11:23:22;;;;;;;4.07;3.00;;;19.00;99.90;;;;;;5014567;28;20424;-86
2023/07/26 11:25:53;;;;;;;6.60;2.50;;;18.50;99.90;;;;;;5037251;28;20436;-87
2023/07/26 11:28:19;;;;;;;2.27;1.93;;;18.50;99.90;;;;;;5022856;28;20580;-86
2023/07/26 11:30:51;;;;;;;4.20;3.80;;;19.00;99.90;;;;;;5013663;28;20483;-86
2023/07/26 11:33:32;;;;;;;3.87;2.70;;;19.50;99.90;;;;;;5037296;28;20436;-88
2023/07/26 11:36:00;;;;;;;3.97;2.90;;;19.00;99.90;;;;;;5036340;28;20502;-88
2023/07/26 11:38:26;;;;;;;4.40;3.13;;;19.20;99.90;;;;;;5019971;28;20467;-87
2023/07/26 11:40:58;;;;;;;3.40;3.03;;;19.00;99.90;;;;;;5019553;28;20602;-84
2023/07/26 11:43:25;;;;;;;7.70;2.50;;;19.00;99.90;;;;;;5024239;28;20958;-88
2023/07/26 11:45:52;;;;;;;3.30;2.80;;;18.60;99.90;;;;;;5022791;28;20467;-85
2023/07/26 11:48:18;;;;;;;6.20;3.07;;;18.60;99.90;;;;;;5020807;28;20798;-85
2023/07/26 11:50:44;;;;;;;3.47;3.00;;;19.10;99.90;;;;;;5019898;28;20606;-87
2023/07/26 11:53:14;;;;;;;3.97;2.30;;;19.90;99.90;;;;;;5021451;28;20508;-87
2023/07/26 11:55:41;;;;;;;3.47;2.47;;;20.20;99.90;;;;;;5024710;28;20258;-85
2023/07/26 11:58:09;;;;;;;3.83;2.47;;;20.30;99.90;;;;;;5041985;28;20485;-85
2023/07/26 12:00:37;;;;;;;4.90;2.93;;;20.30;99.90;;;;;;5016777;28;20420;-85
2023/07/26 12:03:06;;;;;;;3.10;2.43;;;19.60;99.90;;;;;;5041946;28;21546;-87
2023/07/26 12:05:33;;;;;;;5.30;3.20;;;20.00;99.90;;;;;;5020330;28;20461;-85
2023/07/26 12:08:06;;;;;;;3.73;2.53;;;19.20;99.90;;;;;;5021926;28;20455;-86
2023/07/26 12:10:34;;;;;;;2.83;2.20;;;19.00;99.90;;;;;;5025378;28;20432;-83
2023/07/26 12:13:07;;;;;;;31.07;3.93;;;18.40;99.90;;;;;;5026792;28;20521;-84
2023/07/26 12:15:51;;;;;;;4.10;2.60;;;18.20;99.90;;;;;;5022041;28;20453;-82
2023/07/26 12:18:17;;;;;;;2.90;2.63;;;18.60;99.90;;;;;;5030161;28;20462;-86
2023/07/26 12:21:01;;;;;;;4.50;3.50;;;19.30;99.90;;;;;;5023448;28;20425;-84
2023/07/26 12:23:29;;;;;;;4.57;3.10;;;19.40;99.90;;;;;;5021857;28;20475;-84
2023/07/26 12:25:57;;;;;;;4.07;2.90;;;20.30;99.90;;;;;;5017585;28;20433;-87
2023/07/26 12:28:24;;;;;;;3.00;2.60;;;20.70;99.90;;;;;;5026562;28;21220;-80
2023/07/26 12:30:57;;;;;;;4.17;2.80;;;20.30;99.90;;;;;;5033866;28;20686;-88
2023/07/26 12:33:24;;;;;;;6.93;3.37;;;19.80;99.90;;;;;;5024543;28;20436;-89
2023/07/26 12:35:54;;;;;;;5.70;2.30;;;20.20;99.90;;;;;;5041321;28;20555;-87
2023/07/26 12:38:21;;;;;;;4.77;2.00;;;21.00;99.90;;;;;;5024061;28;20432;-84
2023/07/26 12:40:48;;;;;;;4.17;3.20;;;21.10;99.90;;;;;;5023710;28;20570;-87
2023/07/26 12:43:22;;;;;;;4.27;3.00;;;20.50;99.90;;;;;;5021830;28;20433;-84
2023/07/26 12:45:48;;;;;;;3.27;2.63;;;19.70;99.90;;;;;;5032818;28;20587;-90